Date,TemperatureHighF,TemperatureAvgF,TemperatureLowF,DewpointHighF,DewpointAvgF,DewpointLowF,HumidityHigh,HumidityAvg,HumidityLow,PressureMaxIn,PressureMinIn,WindSpeedMaxMPH,WindSpeedAvgMPH,GustSpeedMaxMPH,PrecipitationSumIn
2013-5-1,66.5,50.5,33.7,40.1,35.2,28.9,94,61,26,30.58,30.45,6,1,8,0.00
2013-5-2,72.8,56.1,42.8,45.4,41.0,38.1,84,60,33,30.55,30.36,8,1,10,0.00
2013-5-3,72.6,58.1,43.1,50.2,44.7,40.1,91,64,41,30.39,30.23,11,1,11,0.00
2013-5-4,80.5,64.2,47.2,52.0,45.7,37.6,88,56,25,30.24,30.00,10,1,12,0.00
2013-5-5,85.1,67.0,47.9,51.4,46.5,38.6,86,53,22,30.00,29.76,7,1,8,0.00
2013-5-6,89.0,69.0,50.8,50.9,46.2,41.3,84,49,20,29.85,29.74,7,1,8,0.00
2013-5-7,71.5,60.9,52.8,54.8,51.3,47.2,89,72,52,30.00,29.81,11,2,12,0.00
2013-5-8,65.7,57.4,52.6,53.2,50.6,48.6,90,79,62,30.14,30.00,10,2,11,0.00
2013-5-9,71.7,58.7,49.7,55.9,51.5,48.0,95,79,46,30.22,30.11,8,1,8,0.00
2013-5-10,81.6,64.1,47.8,55.9,51.6,45.9,94,68,35,30.20,30.10,7,1,7,0.00
2013-5-11,82.0,67.0,56.8,56.1,50.5,43.7,82,58,33,30.17,29.98,10,1,10,0.00
2013-5-12,72.6,64.0,59.0,58.3,56.2,51.8,91,77,57,30.10,30.01,10,2,17,0.09
2013-5-13,67.5,58.2,51.2,58.6,51.3,42.7,90,78,61,30.19,29.92,19,4,27,0.09
2013-5-14,65.3,56.0,48.0,45.7,42.6,37.3,83,63,38,30.23,30.11,9,2,11,0.00
2013-5-15,67.1,54.4,44.8,51.7,46.0,41.0,92,75,44,30.12,30.02,12,1,14,0.04
2013-5-16,73.8,61.3,53.0,54.4,51.6,47.8,94,73,42,30.02,29.86,7,1,8,0.00
2013-5-17,63.7,58.2,54.3,51.5,49.5,45.6,89,74,54,30.06,29.95,10,2,11,0.01
2013-5-18,63.2,57.4,53.3,49.3,47.4,44.6,83,70,53,30.27,30.06,14,2,15,0.00
2013-5-19,66.0,57.7,52.2,52.1,49.1,46.8,85,74,55,30.40,30.27,5,1,7,0.00
2013-5-20,68.8,56.3,44.6,52.1,47.7,42.6,94,75,45,30.36,29.90,8,1,9,0.00
2013-5-21,58.0,51.4,47.2,52.1,46.1,43.9,93,83,63,29.91,29.78,12,2,15,0.30
2013-5-22,54.8,49.1,44.7,47.9,45.0,42.4,93,86,73,29.94,29.85,10,2,10,0.08
2013-5-23,61.1,50.8,45.7,46.9,45.1,41.8,94,82,52,30.02,29.93,12,1,14,0.04
2013-5-24,64.8,54.4,46.4,50.4,46.3,42.8,94,76,48,30.05,29.97,8,1,11,0.02
2013-5-25,66.9,57.0,51.3,49.5,47.2,43.3,87,71,44,30.05,29.97,11,2,11,0.00
2013-5-26,65.8,57.2,51.6,55.1,51.1,48.1,92,81,63,29.99,29.94,9,1,9,0.03
2013-5-27,60.4,56.3,50.9,56.6,52.7,48.7,93,88,79,29.97,29.71,8,1,10,0.16
2013-5-28,65.1,57.5,53.1,53.4,50.4,47.5,90,78,59,29.89,29.77,11,2,13,0.01
2013-5-29,62.7,54.2,50.6,53.0,49.9,47.9,94,86,65,29.97,29.68,11,1,12,0.10
2013-5-30,65.2,56.5,50.2,49.4,47.5,44.8,87,73,52,30.25,29.97,12,2,15,0.01
2013-5-31,68.7,58.6,51.9,49.9,46.7,42.6,86,67,42,30.35,30.25,7,1,7,0.00